sensor_id;sensor_type;location;lat;lon;timestamp;pressure;altitude;pressure_sealevel;temperature;humidity
64886;BME280;51514;52.206;5.114;2022-08-20T00:00:23;101594.47;;;20.98;87.08
64886;BME280;51514;52.206;5.114;2022-08-20T00:02:54;101594.25;;;20.93;87.25
64886;BME280;51514;52.206;5.114;2022-08-20T00:05:31;101592.34;;;20.87;87.56
64886;BME280;51514;52.206;5.114;2022-08-20T00:07:57;101600.13;;;20.83;88.02
64886;BME280;51514;52.206;5.114;2022-08-20T00:10:23;101595.06;;;20.80;88.27
64886;BME280;51514;52.206;5.114;2022-08-20T00:12:49;101599.91;;;20.78;88.34
64886;BME280;51514;52.206;5.114;2022-08-20T00:15:17;101602.44;;;20.80;88.39
64886;BME280;51514;52.206;5.114;2022-08-20T00:17:47;101609.41;;;20.82;88.66
64886;BME280;51514;52.206;5.114;2022-08-20T00:20:15;101611.31;;;20.82;88.46
64886;BME280;51514;52.206;5.114;2022-08-20T00:22:42;101613.84;;;20.83;88.37
64886;BME280;51514;52.206;5.114;2022-08-20T00:25:08;101619.97;;;20.85;88.38
64886;BME280;51514;52.206;5.114;2022-08-20T00:27:34;101618.06;;;20.86;88.17
64886;BME280;51514;52.206;5.114;2022-08-20T00:29:59;101608.81;;;20.87;88.22
64886;BME280;51514;52.206;5.114;2022-08-20T00:32:25;101619.78;;;20.87;88.33
64886;BME280;51514;52.206;5.114;2022-08-20T00:34:50;101617.88;;;20.87;88.19
64886;BME280;51514;52.206;5.114;2022-08-20T00:37:16;101620.38;;;20.89;88.39
64886;BME280;51514;52.206;5.114;2022-08-20T00:39:41;101612.59;;;20.86;88.79
64886;BME280;51514;52.206;5.114;2022-08-20T00:42:07;101613.44;;;20.86;88.56
64886;BME280;51514;52.206;5.114;2022-08-20T00:44:32;101611.31;;;20.88;88.55
64886;BME280;51514;52.206;5.114;2022-08-20T00:46:58;101599.94;;;20.85;88.56
64886;BME280;51514;52.206;5.114;2022-08-20T00:49:27;101596.97;;;20.80;88.23
64886;BME280;51514;52.206;5.114;2022-08-20T00:52:06;101607.72;;;20.74;88.33
64886;BME280;51514;52.206;5.114;2022-08-20T00:54:44;101617.00;;;20.73;88.21
64886;BME280;51514;52.206;5.114;2022-08-20T00:57:21;101633.44;;;20.73;88.17
64886;BME280;51514;52.206;5.114;2022-08-20T00:59:48;101623.53;;;20.72;88.29
64886;BME280;51514;52.206;5.114;2022-08-20T01:02:15;101629.00;;;20.72;88.49
64886;BME280;51514;52.206;5.114;2022-08-20T01:04:42;101622.47;;;20.73;88.56
64886;BME280;51514;52.206;5.114;2022-08-20T01:07:25;101623.97;;;20.76;88.50
64886;BME280;51514;52.206;5.114;2022-08-20T01:10:00;101617.41;;;20.77;88.44
64886;BME280;51514;52.206;5.114;2022-08-20T01:12:28;101618.25;;;20.77;88.58
64886;BME280;51514;52.206;5.114;2022-08-20T01:14:55;101618.88;;;20.80;88.95
64886;BME280;51514;52.206;5.114;2022-08-20T01:17:24;101627.13;;;20.80;88.90
64886;BME280;51514;52.206;5.114;2022-08-20T01:20:01;101623.31;;;20.81;88.79
64886;BME280;51514;52.206;5.114;2022-08-20T01:22:37;101627.75;;;20.82;88.91
64886;BME280;51514;52.206;5.114;2022-08-20T01:27:58;101626.06;;;20.81;88.71
64886;BME280;51514;52.206;5.114;2022-08-20T01:30:26;101626.06;;;20.81;88.81
64886;BME280;51514;52.206;5.114;2022-08-20T01:32:52;101613.59;;;20.78;88.29
64886;BME280;51514;52.206;5.114;2022-08-20T01:35:20;101624.81;;;20.76;88.41
64886;BME280;51514;52.206;5.114;2022-08-20T01:37:46;101624.81;;;20.76;88.53
64886;BME280;51514;52.206;5.114;2022-08-20T01:40:13;101628.16;;;20.78;88.44
64886;BME280;51514;52.206;5.114;2022-08-20T01:42:45;101620.13;;;20.77;87.99
64886;BME280;51514;52.206;5.114;2022-08-20T01:45:13;101617.41;;;20.77;88.08
64886;BME280;51514;52.206;5.114;2022-08-20T01:47:38;101619.09;;;20.78;87.63
64886;BME280;51514;52.206;5.114;2022-08-20T01:50:14;101619.31;;;20.76;87.22
64886;BME280;51514;52.206;5.114;2022-08-20T01:52:46;101613.41;;;20.73;86.42
64886;BME280;51514;52.206;5.114;2022-08-20T01:55:14;101614.66;;;20.70;86.23
64886;BME280;51514;52.206;5.114;2022-08-20T01:57:40;101623.47;;;20.66;85.88
64886;BME280;51514;52.206;5.114;2022-08-20T02:00:09;101630.03;;;20.65;86.55
64886;BME280;51514;52.206;5.114;2022-08-20T02:02:37;101624.75;;;20.63;86.51
64886;BME280;51514;52.206;5.114;2022-08-20T02:05:02;101621.78;;;20.58;86.14
64886;BME280;51514;52.206;5.114;2022-08-20T02:07:28;101622.81;;;20.57;86.36
64886;BME280;51514;52.206;5.114;2022-08-20T02:09:54;101630.19;;;20.57;86.45
64886;BME280;51514;52.206;5.114;2022-08-20T02:12:19;101626.00;;;20.54;86.34
64886;BME280;51514;52.206;5.114;2022-08-20T02:14:48;101628.28;;;20.51;86.65
64886;BME280;51514;52.206;5.114;2022-08-20T02:17:15;101632.94;;;20.50;86.65
64886;BME280;51514;52.206;5.114;2022-08-20T02:19:50;101630.19;;;20.50;86.65
64886;BME280;51514;52.206;5.114;2022-08-20T02:22:25;101624.72;;;20.50;86.52
64886;BME280;51514;52.206;5.114;2022-08-20T02:24:53;101623.00;;;20.49;86.85
64886;BME280;51514;52.206;5.114;2022-08-20T02:27:18;101633.13;;;20.49;86.99
64886;BME280;51514;52.206;5.114;2022-08-20T02:29:47;101628.50;;;20.49;87.06
64886;BME280;51514;52.206;5.114;2022-08-20T02:32:13;101625.94;;;20.48;86.92
64886;BME280;51514;52.206;5.114;2022-08-20T02:34:38;101627.84;;;20.47;87.22
64886;BME280;51514;52.206;5.114;2022-08-20T02:37:05;101635.03;;;20.48;87.12
64886;BME280;51514;52.206;5.114;2022-08-20T02:39:31;101633.97;;;20.49;87.27
64886;BME280;51514;52.206;5.114;2022-08-20T02:41:57;101637.75;;;20.48;87.36
64886;BME280;51514;52.206;5.114;2022-08-20T02:44:22;101638.81;;;20.47;87.42
64886;BME280;51514;52.206;5.114;2022-08-20T02:46:48;101639.25;;;20.44;87.33
64886;BME280;51514;52.206;5.114;2022-08-20T02:49:15;101635.84;;;20.42;87.31
64886;BME280;51514;52.206;5.114;2022-08-20T02:51:42;101633.50;;;20.39;87.25
64886;BME280;51514;52.206;5.114;2022-08-20T02:54:07;101639.38;;;20.36;87.16
64886;BME280;51514;52.206;5.114;2022-08-20T02:56:33;101635.97;;;20.34;86.88
64886;BME280;51514;52.206;5.114;2022-08-20T02:58:58;101633.47;;;20.32;86.76
64886;BME280;51514;52.206;5.114;2022-08-20T03:01:24;101631.34;;;20.34;86.35
64886;BME280;51514;52.206;5.114;2022-08-20T03:03:49;101637.50;;;20.36;86.03
64886;BME280;51514;52.206;5.114;2022-08-20T03:06:15;101632.22;;;20.35;85.64
64886;BME280;51514;52.206;5.114;2022-08-20T03:08:41;101635.13;;;20.33;85.26
64886;BME280;51514;52.206;5.114;2022-08-20T03:11:07;101633.47;;;20.32;85.24
64886;BME280;51514;52.206;5.114;2022-08-20T03:13:32;101634.72;;;20.30;84.96
64886;BME280;51514;52.206;5.114;2022-08-20T03:16:00;101630.47;;;20.27;84.71
64886;BME280;51514;52.206;5.114;2022-08-20T03:18:31;101635.31;;;20.25;84.87
64886;BME280;51514;52.206;5.114;2022-08-20T03:20:56;101633.81;;;20.23;84.97
64886;BME280;51514;52.206;5.114;2022-08-20T03:23:21;101643.09;;;20.22;85.15
64886;BME280;51514;52.206;5.114;2022-08-20T03:25:48;101634.63;;;20.17;85.03
64886;BME280;51514;52.206;5.114;2022-08-20T03:28:14;101627.25;;;20.17;85.19
64886;BME280;51514;52.206;5.114;2022-08-20T03:30:41;101632.09;;;20.15;85.06
64886;BME280;51514;52.206;5.114;2022-08-20T03:33:06;101637.16;;;20.12;85.10
64886;BME280;51514;52.206;5.114;2022-08-20T03:35:33;101637.16;;;20.12;84.79
64886;BME280;51514;52.206;5.114;2022-08-20T03:37:59;101634.16;;;20.07;84.52
64886;BME280;51514;52.206;5.114;2022-08-20T03:40:28;101631.63;;;20.05;84.21
64886;BME280;51514;52.206;5.114;2022-08-20T03:42:54;101639.19;;;20.03;84.24
64886;BME280;51514;52.206;5.114;2022-08-20T03:45:21;101638.34;;;20.02;85.05
64886;BME280;51514;52.206;5.114;2022-08-20T03:47:47;101642.13;;;20.01;84.67
64886;BME280;51514;52.206;5.114;2022-08-20T03:50:13;101644.84;;;20.01;84.91
64886;BME280;51514;52.206;5.114;2022-08-20T03:52:39;101645.69;;;20.02;84.92
64886;BME280;51514;52.206;5.114;2022-08-20T03:55:05;101650.31;;;20.01;85.06
64886;BME280;51514;52.206;5.114;2022-08-20T03:57:32;101642.13;;;20.01;84.91
64886;BME280;51514;52.206;5.114;2022-08-20T03:59:57;101651.41;;;20.00;84.77
64886;BME280;51514;52.206;5.114;2022-08-20T04:02:23;101639.81;;;19.98;84.66
64886;BME280;51514;52.206;5.114;2022-08-20T04:04:49;101644.63;;;19.96;84.49
64886;BME280;51514;52.206;5.114;2022-08-20T04:07:18;101650.50;;;19.93;84.32
64886;BME280;51514;52.206;5.114;2022-08-20T04:09:53;101650.06;;;19.90;83.98
64886;BME280;51514;52.206;5.114;2022-08-20T04:12:18;101657.19;;;19.84;84.08
64886;BME280;51514;52.206;5.114;2022-08-20T04:14:44;101657.19;;;19.84;84.05
64886;BME280;51514;52.206;5.114;2022-08-20T04:17:10;101654.22;;;19.79;84.07
64886;BME280;51514;52.206;5.114;2022-08-20T04:19:37;101655.25;;;19.78;84.30
64886;BME280;51514;52.206;5.114;2022-08-20T04:22:03;101656.47;;;19.76;84.03
64886;BME280;51514;52.206;5.114;2022-08-20T04:24:29;101656.69;;;19.74;84.01
64886;BME280;51514;52.206;5.114;2022-08-20T04:26:55;101657.72;;;19.73;83.96
64886;BME280;51514;52.206;5.114;2022-08-20T04:29:22;101657.91;;;19.72;83.77
64886;BME280;51514;52.206;5.114;2022-08-20T04:31:50;101663.59;;;19.70;83.77
64886;BME280;51514;52.206;5.114;2022-08-20T04:34:16;101663.59;;;19.70;83.77
64886;BME280;51514;52.206;5.114;2022-08-20T04:36:44;101666.50;;;19.68;83.64
64886;BME280;51514;52.206;5.114;2022-08-20T04:39:12;101665.03;;;19.66;83.37
64886;BME280;51514;52.206;5.114;2022-08-20T04:41:37;101663.53;;;19.63;83.09
64886;BME280;51514;52.206;5.114;2022-08-20T04:44:02;101672.78;;;19.62;82.86
64886;BME280;51514;52.206;5.114;2022-08-20T04:46:28;101671.50;;;19.58;82.81
64886;BME280;51514;52.206;5.114;2022-08-20T04:48:56;101682.66;;;19.57;82.71
64886;BME280;51514;52.206;5.114;2022-08-20T04:51:21;101681.34;;;19.53;82.69
64886;BME280;51514;52.206;5.114;2022-08-20T04:53:47;101684.66;;;19.48;82.83
64886;BME280;51514;52.206;5.114;2022-08-20T04:56:13;101684.19;;;19.45;82.88
64886;BME280;51514;52.206;5.114;2022-08-20T04:58:39;101684.56;;;19.42;83.00
64886;BME280;51514;52.206;5.114;2022-08-20T05:01:07;101689.78;;;19.37;83.41
64886;BME280;51514;52.206;5.114;2022-08-20T05:03:36;101690.19;;;19.33;83.33
64886;BME280;51514;52.206;5.114;2022-08-20T05:06:06;101690.56;;;19.30;83.05
64886;BME280;51514;52.206;5.114;2022-08-20T05:08:32;101690.94;;;19.27;82.99
64886;BME280;51514;52.206;5.114;2022-08-20T05:10:58;101695.75;;;19.25;82.77
64886;BME280;51514;52.206;5.114;2022-08-20T05:13:24;101695.31;;;19.22;82.54
64886;BME280;51514;52.206;5.114;2022-08-20T05:15:50;101697.41;;;19.20;82.80
64886;BME280;51514;52.206;5.114;2022-08-20T05:18:17;101702.41;;;19.16;82.66
64886;BME280;51514;52.206;5.114;2022-08-20T05:20:45;101703.19;;;19.10;82.76
64886;BME280;51514;52.206;5.114;2022-08-20T05:23:12;101700.66;;;19.09;82.83
64886;BME280;51514;52.206;5.114;2022-08-20T05:25:39;101701.88;;;19.06;82.68
64886;BME280;51514;52.206;5.114;2022-08-20T05:28:12;101710.25;;;19.05;82.47
64886;BME280;51514;52.206;5.114;2022-08-20T05:30:40;101704.34;;;19.01;82.64
64886;BME280;51514;52.206;5.114;2022-08-20T05:33:08;101707.28;;;19.00;82.63
64886;BME280;51514;52.206;5.114;2022-08-20T05:35:36;101711.91;;;18.99;82.95
64886;BME280;51514;52.206;5.114;2022-08-20T05:38:04;101708.31;;;18.99;83.19
64886;BME280;51514;52.206;5.114;2022-08-20T05:40:30;101706.81;;;18.96;83.33
64886;BME280;51514;52.206;5.114;2022-08-20T05:42:55;101715.00;;;18.96;83.23
64886;BME280;51514;52.206;5.114;2022-08-20T05:45:21;101719.44;;;18.97;83.19
64886;BME280;51514;52.206;5.114;2022-08-20T05:47:47;101721.13;;;18.98;83.56
64886;BME280;51514;52.206;5.114;2022-08-20T05:50:14;101730.00;;;19.00;83.53
64886;BME280;51514;52.206;5.114;2022-08-20T05:52:40;101722.47;;;19.02;83.93
64886;BME280;51514;52.206;5.114;2022-08-20T05:55:08;101731.28;;;19.04;84.46
64886;BME280;51514;52.206;5.114;2022-08-20T05:57:35;101728.16;;;19.07;84.66
64886;BME280;51514;52.206;5.114;2022-08-20T06:00:02;101725.72;;;19.12;84.76
64886;BME280;51514;52.206;5.114;2022-08-20T06:02:29;101724.28;;;19.16;84.00
64886;BME280;51514;52.206;5.114;2022-08-20T06:05:13;101729.00;;;19.22;83.23
64886;BME280;51514;52.206;5.114;2022-08-20T06:07:38;101729.66;;;19.24;82.59
64886;BME280;51514;52.206;5.114;2022-08-20T06:10:05;101734.31;;;19.30;82.86
64886;BME280;51514;52.206;5.114;2022-08-20T06:12:31;101733.94;;;19.33;82.84
64886;BME280;51514;52.206;5.114;2022-08-20T06:14:57;101728.72;;;19.39;83.31
64886;BME280;51514;52.206;5.114;2022-08-20T06:17:23;101722.88;;;19.42;82.16
64886;BME280;51514;52.206;5.114;2022-08-20T06:19:48;101733.91;;;19.48;82.34
64886;BME280;51514;52.206;5.114;2022-08-20T06:22:14;101732.28;;;19.54;81.91
64886;BME280;51514;52.206;5.114;2022-08-20T06:24:40;101734.22;;;19.60;81.85
64886;BME280;51514;52.206;5.114;2022-08-20T06:27:05;101732.41;;;19.67;81.80
64886;BME280;51514;52.206;5.114;2022-08-20T06:29:32;101735.38;;;19.72;81.60
64886;BME280;51514;52.206;5.114;2022-08-20T06:31:57;101735.47;;;19.79;81.51
64886;BME280;51514;52.206;5.114;2022-08-20T06:34:26;101727.28;;;19.85;80.87
64886;BME280;51514;52.206;5.114;2022-08-20T06:36:56;101725.63;;;19.91;79.92
64886;BME280;51514;52.206;5.114;2022-08-20T06:39:22;101734.78;;;19.98;80.28
64886;BME280;51514;52.206;5.114;2022-08-20T06:41:48;101733.13;;;20.03;79.01
64886;BME280;51514;52.206;5.114;2022-08-20T06:44:13;101731.28;;;20.11;78.76
64886;BME280;51514;52.206;5.114;2022-08-20T06:46:39;101740.38;;;20.18;78.67
64886;BME280;51514;52.206;5.114;2022-08-20T06:49:05;101746.31;;;20.21;76.77
64886;BME280;51514;52.206;5.114;2022-08-20T06:51:31;101743.81;;;20.26;75.60
64886;BME280;51514;52.206;5.114;2022-08-20T06:53:58;101733.97;;;20.32;75.01
64886;BME280;51514;52.206;5.114;2022-08-20T06:56:24;101735.06;;;20.37;75.42
64886;BME280;51514;52.206;5.114;2022-08-20T06:58:49;101739.50;;;20.38;74.36
64886;BME280;51514;52.206;5.114;2022-08-20T07:01:15;101745.66;;;20.47;74.82
64886;BME280;51514;52.206;5.114;2022-08-20T07:03:46;101743.59;;;20.56;75.06
64886;BME280;51514;52.206;5.114;2022-08-20T07:06:13;101740.91;;;20.62;73.40
64886;BME280;51514;52.206;5.114;2022-08-20T07:08:40;101751.25;;;20.67;71.63
64886;BME280;51514;52.206;5.114;2022-08-20T07:11:05;101750.91;;;20.76;74.07
64886;BME280;51514;52.206;5.114;2022-08-20T07:13:31;101762.31;;;20.87;73.80
64886;BME280;51514;52.206;5.114;2022-08-20T07:15:56;101753.06;;;20.94;72.55
64886;BME280;51514;52.206;5.114;2022-08-20T07:18:22;101747.59;;;21.01;72.70
64886;BME280;51514;52.206;5.114;2022-08-20T07:20:47;101758.81;;;21.06;70.26
64886;BME280;51514;52.206;5.114;2022-08-20T07:23:13;101755.25;;;21.12;69.67
64886;BME280;51514;52.206;5.114;2022-08-20T07:25:41;101753.59;;;21.18;71.01
64886;BME280;51514;52.206;5.114;2022-08-20T07:28:14;101765.63;;;21.23;68.82
64886;BME280;51514;52.206;5.114;2022-08-20T07:30:41;101761.03;;;21.30;69.47
64886;BME280;51514;52.206;5.114;2022-08-20T07:33:26;101759.56;;;21.34;68.56
64886;BME280;51514;52.206;5.114;2022-08-20T07:35:53;101768.03;;;21.39;70.60
64886;BME280;51514;52.206;5.114;2022-08-20T07:38:21;101766.34;;;21.45;67.11
64886;BME280;51514;52.206;5.114;2022-08-20T07:40:52;101771.00;;;21.51;66.83
64886;BME280;51514;52.206;5.114;2022-08-20T07:43:19;101777.34;;;21.58;65.45
64886;BME280;51514;52.206;5.114;2022-08-20T07:45:47;101772.06;;;21.57;62.14
64886;BME280;51514;52.206;5.114;2022-08-20T07:48:13;101770.41;;;21.62;62.94
64886;BME280;51514;52.206;5.114;2022-08-20T07:50:39;101777.78;;;21.68;63.22
64886;BME280;51514;52.206;5.114;2022-08-20T07:53:05;101778.00;;;21.73;62.00
64886;BME280;51514;52.206;5.114;2022-08-20T07:55:31;101786.69;;;21.83;64.62
64886;BME280;51514;52.206;5.114;2022-08-20T07:58:01;101782.03;;;21.91;63.35
64886;BME280;51514;52.206;5.114;2022-08-20T08:00:31;101780.31;;;21.96;61.97
64886;BME280;51514;52.206;5.114;2022-08-20T08:02:56;101786.66;;;21.97;61.22
64886;BME280;51514;52.206;5.114;2022-08-20T08:05:21;101794.31;;;22.01;58.49
64886;BME280;51514;52.206;5.114;2022-08-20T08:07:47;101794.31;;;22.08;58.79
64886;BME280;51514;52.206;5.114;2022-08-20T08:10:16;101794.31;;;22.14;58.59
64886;BME280;51514;52.206;5.114;2022-08-20T08:12:46;101798.75;;;22.22;58.14
64886;BME280;51514;52.206;5.114;2022-08-20T08:15:15;101794.72;;;22.31;58.98
64886;BME280;51514;52.206;5.114;2022-08-20T08:17:43;101798.75;;;22.35;60.34
64886;BME280;51514;52.206;5.114;2022-08-20T08:20:10;101789.84;;;22.40;57.89
64886;BME280;51514;52.206;5.114;2022-08-20T08:22:36;101793.44;;;22.47;60.53
64886;BME280;51514;52.206;5.114;2022-08-20T08:25:08;101793.41;;;22.53;56.68
64886;BME280;51514;52.206;5.114;2022-08-20T08:27:33;101787.91;;;22.60;56.07
64886;BME280;51514;52.206;5.114;2022-08-20T08:30:00;101792.97;;;22.70;58.40
64886;BME280;51514;52.206;5.114;2022-08-20T08:32:26;101793.41;;;22.80;57.69
64886;BME280;51514;52.206;5.114;2022-08-20T08:34:51;101792.72;;;22.84;55.25
64886;BME280;51514;52.206;5.114;2022-08-20T08:37:17;101789.13;;;22.90;54.37
64886;BME280;51514;52.206;5.114;2022-08-20T08:39:42;101788.66;;;22.93;53.95
64886;BME280;51514;52.206;5.114;2022-08-20T08:42:34;101795.25;;;22.92;51.31
64886;BME280;51514;52.206;5.114;2022-08-20T08:45:06;101788.44;;;23.02;53.54
64886;BME280;51514;52.206;5.114;2022-08-20T08:47:35;101794.13;;;23.07;49.83
64886;BME280;51514;52.206;5.114;2022-08-20T08:50:05;101794.13;;;23.13;53.37
64886;BME280;51514;52.206;5.114;2022-08-20T08:52:34;101794.50;;;23.23;54.05
64886;BME280;51514;52.206;5.114;2022-08-20T08:55:05;101799.53;;;23.33;52.70
64886;BME280;51514;52.206;5.114;2022-08-20T08:57:31;101802.00;;;23.41;53.03
64886;BME280;51514;52.206;5.114;2022-08-20T09:00:12;101810.00;;;23.49;53.88
64886;BME280;51514;52.206;5.114;2022-08-20T09:02:39;101807.03;;;23.57;51.96
64886;BME280;51514;52.206;5.114;2022-08-20T09:05:19;101807.84;;;23.64;52.33
64886;BME280;51514;52.206;5.114;2022-08-20T09:07:50;101802.06;;;23.73;52.01
64886;BME280;51514;52.206;5.114;2022-08-20T09:10:17;101806.69;;;23.79;50.85
64886;BME280;51514;52.206;5.114;2022-08-20T09:12:43;101809.16;;;23.87;50.83
64886;BME280;51514;52.206;5.114;2022-08-20T09:15:09;101813.53;;;23.94;48.63
64886;BME280;51514;52.206;5.114;2022-08-20T09:17:34;101807.38;;;23.99;50.48
64886;BME280;51514;52.206;5.114;2022-08-20T09:19:59;101799.44;;;24.09;49.51
64886;BME280;51514;52.206;5.114;2022-08-20T09:22:25;101794.91;;;24.21;49.34
64886;BME280;51514;52.206;5.114;2022-08-20T09:24:50;101800.28;;;24.34;49.68
64886;BME280;51514;52.206;5.114;2022-08-20T09:27:16;101799.56;;;24.46;49.22
64886;BME280;51514;52.206;5.114;2022-08-20T09:29:41;101802.03;;;24.54;47.70
64886;BME280;51514;52.206;5.114;2022-08-20T09:32:08;101800.66;;;24.63;47.59
64886;BME280;51514;52.206;5.114;2022-08-20T09:34:39;101797.81;;;24.69;47.01
64886;BME280;51514;52.206;5.114;2022-08-20T09:37:05;101793.78;;;24.72;47.93
64886;BME280;51514;52.206;5.114;2022-08-20T09:39:31;101799.16;;;24.85;48.44
64886;BME280;51514;52.206;5.114;2022-08-20T09:42:18;101800.78;;;24.93;49.13
64886;BME280;51514;52.206;5.114;2022-08-20T09:44:44;101802.75;;;25.04;50.43
64886;BME280;51514;52.206;5.114;2022-08-20T09:47:10;101799.31;;;25.08;48.29
64886;BME280;51514;52.206;5.114;2022-08-20T09:49:36;101788.63;;;25.12;46.46
64886;BME280;51514;52.206;5.114;2022-08-20T09:52:02;101802.22;;;25.14;47.81
64886;BME280;51514;52.206;5.114;2022-08-20T09:54:29;101797.44;;;25.21;45.74
64886;BME280;51514;52.206;5.114;2022-08-20T09:57:04;101799.91;;;25.29;47.45
64886;BME280;51514;52.206;5.114;2022-08-20T09:59:31;101793.81;;;25.38;45.34
64886;BME280;51514;52.206;5.114;2022-08-20T10:01:57;101788.66;;;25.42;45.70
64886;BME280;51514;52.206;5.114;2022-08-20T10:04:22;101800.00;;;25.52;47.99
64886;BME280;51514;52.206;5.114;2022-08-20T10:06:48;101792.47;;;25.59;47.32
64886;BME280;51514;52.206;5.114;2022-08-20T10:09:13;101793.09;;;25.61;46.76
64886;BME280;51514;52.206;5.114;2022-08-20T10:11:39;101791.41;;;25.60;45.91
64886;BME280;51514;52.206;5.114;2022-08-20T10:14:04;101797.22;;;25.70;46.62
64886;BME280;51514;52.206;5.114;2022-08-20T10:16:32;101794.94;;;25.79;46.05
64886;BME280;51514;52.206;5.114;2022-08-20T10:18:57;101796.50;;;25.87;46.83
64886;BME280;51514;52.206;5.114;2022-08-20T10:21:23;101784.88;;;25.96;47.69
64886;BME280;51514;52.206;5.114;2022-08-20T10:23:48;101789.84;;;26.06;46.50
64886;BME280;51514;52.206;5.114;2022-08-20T10:26:14;101795.25;;;26.12;45.54
64886;BME280;51514;52.206;5.114;2022-08-20T10:28:41;101787.91;;;26.18;45.24
64886;BME280;51514;52.206;5.114;2022-08-20T10:31:08;101786.72;;;26.26;45.02
64886;BME280;51514;52.206;5.114;2022-08-20T10:33:33;101788.66;;;26.25;45.18
64886;BME280;51514;52.206;5.114;2022-08-20T10:36:10;101793.09;;;26.26;46.09
64886;BME280;51514;52.206;5.114;2022-08-20T10:38:36;101802.38;;;26.32;45.52
64886;BME280;51514;52.206;5.114;2022-08-20T10:41:02;101795.41;;;26.29;45.89
64886;BME280;51514;52.206;5.114;2022-08-20T10:43:28;101795.13;;;26.19;45.97
64886;BME280;51514;52.206;5.114;2022-08-20T10:45:53;101796.47;;;26.16;46.41
64886;BME280;51514;52.206;5.114;2022-08-20T10:48:19;101795.00;;;26.14;45.90
64886;BME280;51514;52.206;5.114;2022-08-20T10:50:44;101797.53;;;26.15;44.96
64886;BME280;51514;52.206;5.114;2022-08-20T10:53:10;101799.22;;;26.16;43.71
64886;BME280;51514;52.206;5.114;2022-08-20T10:55:35;101791.88;;;26.22;44.62
64886;BME280;51514;52.206;5.114;2022-08-20T10:58:04;101789.72;;;26.24;43.99
64886;BME280;51514;52.206;5.114;2022-08-20T11:00:29;101788.91;;;26.35;45.29
64886;BME280;51514;52.206;5.114;2022-08-20T11:02:54;101794.22;;;26.48;45.25
64886;BME280;51514;52.206;5.114;2022-08-20T11:05:20;101787.34;;;26.51;43.55
64886;BME280;51514;52.206;5.114;2022-08-20T11:07:45;101796.25;;;26.53;45.60
64886;BME280;51514;52.206;5.114;2022-08-20T11:10:11;101787.72;;;26.54;42.58
64886;BME280;51514;52.206;5.114;2022-08-20T11:12:36;101791.31;;;26.43;41.17
64886;BME280;51514;52.206;5.114;2022-08-20T11:15:03;101790.84;;;26.46;44.68
64886;BME280;51514;52.206;5.114;2022-08-20T11:17:32;101788.69;;;26.48;43.73
64886;BME280;51514;52.206;5.114;2022-08-20T11:19:58;101787.09;;;26.52;44.73
64886;BME280;51514;52.206;5.114;2022-08-20T11:22:24;101796.47;;;26.51;44.38
64886;BME280;51514;52.206;5.114;2022-08-20T11:24:51;101785.31;;;26.58;44.63
64886;BME280;51514;52.206;5.114;2022-08-20T11:27:38;101789.84;;;26.64;43.95
64886;BME280;51514;52.206;5.114;2022-08-20T11:30:06;101790.84;;;26.70;45.13
64886;BME280;51514;52.206;5.114;2022-08-20T11:32:32;101792.25;;;26.72;43.17
64886;BME280;51514;52.206;5.114;2022-08-20T11:34:57;101790.59;;;26.71;43.08
64886;BME280;51514;52.206;5.114;2022-08-20T11:37:23;101783.69;;;26.74;45.06
64886;BME280;51514;52.206;5.114;2022-08-20T11:39:50;101784.31;;;26.76;43.01
64886;BME280;51514;52.206;5.114;2022-08-20T11:42:15;101795.16;;;26.66;42.92
64886;BME280;51514;52.206;5.114;2022-08-20T11:44:41;101796.38;;;26.46;43.78
64886;BME280;51514;52.206;5.114;2022-08-20T11:47:07;101797.09;;;26.30;45.35
64886;BME280;51514;52.206;5.114;2022-08-20T11:49:35;101796.19;;;26.18;44.34
64886;BME280;51514;52.206;5.114;2022-08-20T11:52:01;101788.03;;;26.11;46.16
64886;BME280;51514;52.206;5.114;2022-08-20T11:54:27;101785.97;;;26.07;44.28
64886;BME280;51514;52.206;5.114;2022-08-20T11:56:56;101790.78;;;26.00;45.08
64886;BME280;51514;52.206;5.114;2022-08-20T11:59:23;101792.22;;;25.91;46.49
64886;BME280;51514;52.206;5.114;2022-08-20T12:01:49;101789.19;;;25.80;45.64
64886;BME280;51514;52.206;5.114;2022-08-20T12:04:14;101794.56;;;25.75;46.21
64886;BME280;51514;52.206;5.114;2022-08-20T12:06:40;101790.00;;;25.69;47.15
64886;BME280;51514;52.206;5.114;2022-08-20T12:09:05;101794.69;;;25.69;46.96
64886;BME280;51514;52.206;5.114;2022-08-20T12:11:30;101792.88;;;25.63;45.88
64886;BME280;51514;52.206;5.114;2022-08-20T12:13:56;101796.13;;;25.71;46.69
64886;BME280;51514;52.206;5.114;2022-08-20T12:16:21;101794.34;;;25.89;45.39
64886;BME280;51514;52.206;5.114;2022-08-20T12:18:47;101795.22;;;26.01;46.54
64886;BME280;51514;52.206;5.114;2022-08-20T12:21:13;101791.16;;;26.03;43.97
64886;BME280;51514;52.206;5.114;2022-08-20T12:23:38;101792.84;;;26.16;45.31
64886;BME280;51514;52.206;5.114;2022-08-20T12:26:04;101797.41;;;26.22;43.76
64886;BME280;51514;52.206;5.114;2022-08-20T12:28:30;101788.75;;;26.18;42.61
64886;BME280;51514;52.206;5.114;2022-08-20T12:30:56;101785.88;;;26.25;43.68
64886;BME280;51514;52.206;5.114;2022-08-20T12:33:21;101791.78;;;26.17;43.51
64886;BME280;51514;52.206;5.114;2022-08-20T12:35:47;101786.56;;;26.09;43.63
64886;BME280;51514;52.206;5.114;2022-08-20T12:38:12;101782.72;;;25.98;43.66
64886;BME280;51514;52.206;5.114;2022-08-20T12:40:38;101779.22;;;25.91;44.41
64886;BME280;51514;52.206;5.114;2022-08-20T12:45:45;101788.19;;;25.75;44.52
64886;BME280;51514;52.206;5.114;2022-08-20T12:48:12;101785.88;;;25.60;43.82
64886;BME280;51514;52.206;5.114;2022-08-20T12:50:41;101782.22;;;25.48;45.09
64886;BME280;51514;52.206;5.114;2022-08-20T12:53:07;101783.06;;;25.49;45.18
64886;BME280;51514;52.206;5.114;2022-08-20T12:55:33;101779.94;;;25.57;46.36